createdAt,value
2023-03-27T00:02:04.982Z,3.67
2023-03-27T00:04:31.512Z,3.72
2023-03-27T00:06:59.443Z,3.40
2023-03-27T00:09:27.731Z,4.85
2023-03-27T00:11:56.199Z,3.63
2023-03-27T00:14:23.899Z,2.85
2023-03-27T00:16:51.258Z,3.92
2023-03-27T00:19:18.938Z,3.47
2023-03-27T00:21:45.441Z,4.32
2023-03-27T00:24:12.340Z,3.17
2023-03-27T00:26:40.614Z,3.88
2023-03-27T00:29:08.066Z,3.95
2023-03-27T00:31:34.882Z,4.25
2023-03-27T00:34:01.862Z,3.25
2023-03-27T00:36:28.327Z,3.45
2023-03-27T00:38:55.182Z,3.30
2023-03-27T00:41:22.190Z,3.20
2023-03-27T00:43:50.654Z,2.83
2023-03-27T00:46:27.842Z,2.42
2023-03-27T00:48:55.709Z,3.58
2023-03-27T00:51:24.752Z,3.40
2023-03-27T00:53:51.501Z,3.72
2023-03-27T00:56:18.160Z,2.90
2023-03-27T00:58:48.901Z,3.08
2023-03-27T01:01:17.060Z,3.03
2023-03-27T01:03:46.629Z,4.30
2023-03-27T01:06:14.789Z,2.72
2023-03-27T01:08:43.356Z,2.15
2023-03-27T01:11:26.760Z,2.28
2023-03-27T01:14:03.129Z,1.83
2023-03-27T01:16:37.255Z,2.30
2023-03-27T01:19:35.374Z,2.35
2023-03-27T01:22:24.663Z,3.10
2023-03-27T01:25:16.834Z,2.40
2023-03-27T01:28:21.320Z,2.53
2023-03-27T01:30:57.003Z,2.33
2023-03-27T01:33:56.480Z,2.15
2023-03-27T01:36:42.595Z,2.25
2023-03-27T01:39:18.053Z,1.88
2023-03-27T01:41:50.750Z,3.20
2023-03-27T01:44:22.533Z,3.15
2023-03-27T01:46:52.752Z,1.90
2023-03-27T01:49:29.721Z,2.15
2023-03-27T01:52:00.033Z,2.53
2023-03-27T01:54:35.241Z,1.67
2023-03-27T01:57:24.202Z,3.08
2023-03-27T01:59:56.016Z,2.13
2023-03-27T02:02:28.456Z,2.10
2023-03-27T02:05:19.582Z,2.42
2023-03-27T02:07:52.329Z,2.30
2023-03-27T02:10:25.439Z,1.90
2023-03-27T02:13:00.015Z,1.60
2023-03-27T02:15:31.808Z,2.30
2023-03-27T02:18:08.004Z,2.78
2023-03-27T02:20:36.206Z,1.60
2023-03-27T02:23:05.391Z,2.20
2023-03-27T02:25:38.282Z,1.75
2023-03-27T02:28:14.753Z,2.92
2023-03-27T02:31:32.824Z,2.25
2023-03-27T02:34:23.714Z,2.47
2023-03-27T02:37:01.991Z,2.55
2023-03-27T02:39:58.474Z,1.88
2023-03-27T02:42:43.054Z,1.40
2023-03-27T02:45:20.127Z,1.65
2023-03-27T02:47:52.663Z,2.10
2023-03-27T02:50:22.638Z,1.98
2023-03-27T02:52:53.820Z,2.00
2023-03-27T02:55:23.968Z,1.55
2023-03-27T02:57:59.511Z,1.35
2023-03-27T03:00:39.498Z,1.48
2023-03-27T03:03:30.390Z,1.83
2023-03-27T03:06:07.442Z,1.42
2023-03-27T03:08:38.320Z,1.73
2023-03-27T03:11:10.266Z,1.10
2023-03-27T03:13:38.095Z,1.15
2023-03-27T03:16:05.291Z,1.52
2023-03-27T03:18:33.323Z,1.40
2023-03-27T03:21:00.094Z,1.38
2023-03-27T03:23:27.125Z,1.45
2023-03-27T03:25:56.659Z,1.73
2023-03-27T03:28:26.175Z,2.05
2023-03-27T03:30:53.801Z,2.03
2023-03-27T03:33:21.662Z,2.58
2023-03-27T03:35:51.640Z,2.53
2023-03-27T03:38:29.586Z,1.80
2023-03-27T03:41:06.250Z,2.30
2023-03-27T03:43:33.429Z,2.17
2023-03-27T03:46:00.334Z,2.78
2023-03-27T03:48:26.993Z,1.95
2023-03-27T03:50:54.096Z,2.60
2023-03-27T03:53:21.848Z,2.35
2023-03-27T03:55:50.891Z,2.00
2023-03-27T03:58:17.437Z,2.03
2023-03-27T04:00:44.592Z,1.20
2023-03-27T04:03:32.301Z,1.55
2023-03-27T04:06:05.302Z,1.30
2023-03-27T04:08:32.335Z,1.70
2023-03-27T04:11:05.108Z,1.00
2023-03-27T04:13:50.849Z,1.17
2023-03-27T04:16:40.289Z,0.90
2023-03-27T04:19:18.270Z,1.10
2023-03-27T04:21:48.417Z,1.50
2023-03-27T04:24:18.244Z,1.38
2023-03-27T04:26:47.921Z,1.00
2023-03-27T04:29:30.170Z,1.25
2023-03-27T04:31:57.427Z,1.60
2023-03-27T04:34:40.428Z,1.85
2023-03-27T04:37:24.089Z,1.25
2023-03-27T04:40:18.222Z,1.10
2023-03-27T04:42:45.313Z,1.45
2023-03-27T04:45:17.685Z,1.45
2023-03-27T04:47:48.936Z,1.08
2023-03-27T04:50:16.234Z,1.58
2023-03-27T04:52:43.969Z,2.03
2023-03-27T04:55:12.223Z,1.48
2023-03-27T04:57:41.665Z,1.85
2023-03-27T05:00:16.188Z,1.45
2023-03-27T05:02:47.766Z,1.17
2023-03-27T05:05:34.785Z,1.80
2023-03-27T05:08:05.425Z,1.30
2023-03-27T05:10:31.874Z,1.70
2023-03-27T05:12:59.903Z,2.03
2023-03-27T05:15:27.623Z,1.55
2023-03-27T05:17:55.908Z,1.40
2023-03-27T05:20:25.227Z,2.22
2023-03-27T05:22:56.306Z,1.25
2023-03-27T05:25:27.281Z,1.30
2023-03-27T05:27:54.798Z,1.35
2023-03-27T05:30:25.030Z,1.73
2023-03-27T05:33:04.024Z,1.10
2023-03-27T05:35:30.599Z,1.23
2023-03-27T05:37:58.947Z,1.48
2023-03-27T05:40:39.660Z,1.42
2023-03-27T05:43:07.049Z,2.00
2023-03-27T05:45:34.107Z,1.60
2023-03-27T05:48:01.686Z,1.67
2023-03-27T05:50:33.620Z,1.25
2023-03-27T05:53:05.607Z,1.67
2023-03-27T05:55:36.621Z,1.10
2023-03-27T05:58:03.985Z,1.42
2023-03-27T06:00:34.142Z,1.33
2023-03-27T06:03:02.681Z,1.15
2023-03-27T06:05:50.379Z,1.00
2023-03-27T06:08:19.358Z,1.10
2023-03-27T06:10:46.048Z,1.35
2023-03-27T06:13:31.967Z,1.45
2023-03-27T06:16:06.301Z,0.98
2023-03-27T06:18:41.948Z,1.10
2023-03-27T06:21:10.375Z,1.02
2023-03-27T06:23:37.040Z,1.25
2023-03-27T06:26:09.672Z,1.38
2023-03-27T06:28:36.766Z,1.00
2023-03-27T06:31:04.039Z,1.17
2023-03-27T06:33:39.853Z,1.50
2023-03-27T06:36:16.073Z,1.30
2023-03-27T06:38:43.920Z,1.77
2023-03-27T06:41:10.484Z,1.40
2023-03-27T06:44:07.485Z,1.75
2023-03-27T06:46:46.880Z,1.55
2023-03-27T06:49:17.676Z,1.40
2023-03-27T06:51:44.153Z,1.33
2023-03-27T06:54:13.437Z,1.00
2023-03-27T06:56:44.555Z,1.20
2023-03-27T06:59:16.678Z,1.40
2023-03-27T07:01:46.281Z,1.65
2023-03-27T07:04:25.205Z,1.48
2023-03-27T07:07:01.020Z,1.45
2023-03-27T07:09:32.917Z,1.48
2023-03-27T07:12:04.202Z,1.60
2023-03-27T07:14:30.764Z,4.65
2023-03-27T07:16:57.305Z,2.00
2023-03-27T07:19:27.679Z,1.73
2023-03-27T07:22:03.209Z,4.10
2023-03-27T07:24:31.370Z,2.05
2023-03-27T07:26:57.842Z,1.48
2023-03-27T07:29:30.836Z,1.40
2023-03-27T07:32:01.582Z,1.90
2023-03-27T07:34:40.034Z,1.60
2023-03-27T07:37:09.444Z,1.58
2023-03-27T07:39:39.553Z,1.67
2023-03-27T07:42:06.278Z,2.10
2023-03-27T07:44:46.941Z,2.33
2023-03-27T07:47:14.700Z,1.60
2023-03-27T07:49:42.051Z,2.03
2023-03-27T07:52:12.046Z,2.20
2023-03-27T07:54:48.661Z,1.70
2023-03-27T07:57:17.219Z,2.08
2023-03-27T07:59:52.737Z,2.17
2023-03-27T08:02:40.037Z,1.75
2023-03-27T08:05:08.464Z,2.00
2023-03-27T08:07:42.416Z,1.80
2023-03-27T08:10:10.579Z,1.55
2023-03-27T08:12:51.794Z,1.63
2023-03-27T08:15:19.011Z,2.03
2023-03-27T08:17:45.650Z,3.65
2023-03-27T08:20:16.513Z,1.83
2023-03-27T08:22:47.080Z,1.58
2023-03-27T08:25:36.813Z,2.03
2023-03-27T08:28:07.351Z,1.88
2023-03-27T08:30:35.281Z,2.25
2023-03-27T08:33:02.526Z,1.67
2023-03-27T08:35:29.716Z,1.73
2023-03-27T08:37:59.141Z,1.75
2023-03-27T08:40:28.528Z,1.83
2023-03-27T08:43:22.520Z,1.80
2023-03-27T08:45:55.331Z,1.77
2023-03-27T08:48:31.875Z,2.25
2023-03-27T08:51:14.133Z,1.50
2023-03-27T08:53:55.723Z,2.15
2023-03-27T08:56:27.060Z,2.13
2023-03-27T08:58:54.847Z,1.95
2023-03-27T09:01:37.221Z,1.65
2023-03-27T09:04:21.927Z,1.77
2023-03-27T09:07:07.235Z,1.77
2023-03-27T09:09:59.542Z,1.60
2023-03-27T09:12:44.328Z,1.77
2023-03-27T09:15:21.959Z,1.83
2023-03-27T09:17:57.073Z,1.50
2023-03-27T09:20:27.670Z,1.63
2023-03-27T09:22:58.018Z,1.80
2023-03-27T09:25:56.007Z,1.95
2023-03-27T09:28:50.894Z,1.90
2023-03-27T09:31:36.407Z,1.90
2023-03-27T09:34:11.308Z,1.75
2023-03-27T09:36:38.793Z,1.42
2023-03-27T09:39:12.395Z,1.60
2023-03-27T09:41:42.281Z,1.77
2023-03-27T09:44:16.256Z,2.08
2023-03-27T09:46:46.128Z,2.10
2023-03-27T09:49:20.818Z,2.20
2023-03-27T09:51:53.061Z,1.70
2023-03-27T09:54:54.145Z,1.60
2023-03-27T09:57:38.576Z,2.63
2023-03-27T10:00:27.422Z,1.30
2023-03-27T10:03:22.969Z,1.38
2023-03-27T10:06:07.978Z,1.55
2023-03-27T10:08:50.417Z,2.15
2023-03-27T10:11:26.501Z,1.55
2023-03-27T10:14:00.445Z,1.40
2023-03-27T10:16:28.198Z,1.35
2023-03-27T10:19:00.382Z,1.55
2023-03-27T10:21:35.730Z,1.20
2023-03-27T10:24:05.027Z,1.48
2023-03-27T10:27:12.106Z,1.50
2023-03-27T10:29:45.805Z,1.25
2023-03-27T10:32:14.585Z,1.40
2023-03-27T10:34:58.146Z,1.15
2023-03-27T10:37:41.681Z,1.65
2023-03-27T10:40:38.692Z,1.30
2023-03-27T10:43:20.918Z,1.70
2023-03-27T10:46:01.284Z,1.40
2023-03-27T10:48:53.430Z,1.15
2023-03-27T10:51:52.018Z,1.30
2023-03-27T10:55:14.922Z,1.77
2023-03-27T10:57:42.229Z,1.80
2023-03-27T11:00:22.593Z,1.33
2023-03-27T11:03:31.787Z,1.42
2023-03-27T11:06:05.527Z,1.20
2023-03-27T11:09:01.908Z,1.65
2023-03-27T11:11:50.405Z,1.40
2023-03-27T11:14:28.362Z,1.40
2023-03-27T11:17:04.388Z,1.38
2023-03-27T11:20:07.274Z,1.90
2023-03-27T11:23:04.465Z,3.00
2023-03-27T11:25:43.327Z,3.58
2023-03-27T11:28:46.411Z,1.80
2023-03-27T11:31:25.806Z,4.20
2023-03-27T11:34:01.950Z,1.38
2023-03-27T11:36:41.058Z,1.27
2023-03-27T11:39:54.974Z,1.43
2023-03-27T11:42:29.876Z,1.25
2023-03-27T11:44:56.907Z,1.80
2023-03-27T11:47:49.950Z,1.50
2023-03-27T11:50:29.353Z,1.40
2023-03-27T11:53:22.643Z,1.60
2023-03-27T11:56:15.481Z,1.73
2023-03-27T11:59:06.805Z,1.30
2023-03-27T12:01:45.932Z,1.48
2023-03-27T12:04:51.945Z,1.20
2023-03-27T12:07:35.414Z,5.82
2023-03-27T12:10:28.395Z,1.02
2023-03-27T12:13:38.568Z,1.95
2023-03-27T12:16:36.533Z,1.45
2023-03-27T12:19:10.836Z,2.03
2023-03-27T12:21:55.558Z,1.00
2023-03-27T12:24:58.975Z,1.33
2023-03-27T12:28:08.736Z,1.40
2023-03-27T12:31:31.082Z,1.50
2023-03-27T12:34:06.788Z,1.40
2023-03-27T12:36:38.684Z,1.30
2023-03-27T12:39:20.045Z,1.00
2023-03-27T12:41:47.151Z,1.08
2023-03-27T12:44:32.338Z,1.33
2023-03-27T12:47:18.029Z,1.02
2023-03-27T12:49:57.107Z,1.40
2023-03-27T12:52:28.550Z,1.20
2023-03-27T12:55:30.967Z,1.40
2023-03-27T12:57:58.243Z,1.48
2023-03-27T13:00:52.264Z,1.38
2023-03-27T13:03:41.907Z,1.00
2023-03-27T13:06:22.624Z,1.15
2023-03-27T13:09:11.832Z,1.30
2023-03-27T13:12:26.369Z,0.88
2023-03-27T13:15:11.571Z,1.45
2023-03-27T13:17:56.701Z,1.40
2023-03-27T13:21:05.022Z,1.50
2023-03-27T13:23:43.282Z,1.35
2023-03-27T13:26:39.009Z,1.30
2023-03-27T13:29:23.074Z,1.30
2023-03-27T13:32:03.853Z,1.48
2023-03-27T13:35:11.590Z,1.30
2023-03-27T13:37:48.158Z,1.52
2023-03-27T13:40:30.932Z,1.55
2023-03-27T13:43:28.367Z,2.40
2023-03-27T13:46:01.411Z,1.65
2023-03-27T13:48:54.708Z,1.50
2023-03-27T13:51:42.868Z,1.40
2023-03-27T13:54:34.257Z,1.50
2023-03-27T13:57:42.092Z,0.80
2023-03-27T14:00:21.728Z,0.80
2023-03-27T14:03:13.604Z,1.30
2023-03-27T14:06:20.260Z,0.75
2023-03-27T14:09:16.883Z,0.93
2023-03-27T14:15:28.422Z,0.85
2023-03-27T14:18:40.973Z,0.80
2023-03-27T14:21:11.690Z,0.70
2023-03-27T14:24:40.942Z,1.10
2023-03-27T14:27:19.583Z,0.70
2023-03-27T14:29:49.420Z,0.93
2023-03-27T14:32:18.087Z,0.88
2023-03-27T14:35:04.312Z,0.98
2023-03-27T14:37:36.777Z,1.00
2023-03-27T14:40:23.709Z,0.98
2023-03-27T14:42:55.309Z,0.90
2023-03-27T14:45:27.450Z,1.00
2023-03-27T14:48:02.859Z,0.95
2023-03-27T14:50:38.284Z,0.87
2023-03-27T14:53:08.943Z,1.00
2023-03-27T14:56:00.438Z,1.02
2023-03-27T14:58:52.227Z,1.17
2023-03-27T15:01:20.141Z,1.20
2023-03-27T15:03:53.024Z,1.00
2023-03-27T15:06:25.836Z,1.23
2023-03-27T15:08:59.703Z,0.93
2023-03-27T15:12:02.006Z,0.95
2023-03-27T15:14:32.442Z,0.75
2023-03-27T15:17:06.726Z,0.95
2023-03-27T15:19:45.589Z,0.80
2023-03-27T15:22:35.711Z,1.10
2023-03-27T15:25:10.605Z,0.80
2023-03-27T15:27:40.560Z,0.70
2023-03-27T15:30:20.195Z,0.73
2023-03-27T15:32:50.749Z,1.08
2023-03-27T15:35:29.265Z,0.90
2023-03-27T15:37:57.145Z,1.10
2023-03-27T15:40:40.293Z,0.88
2023-03-27T15:43:08.621Z,1.00
2023-03-27T15:45:53.759Z,0.70
2023-03-27T15:48:21.795Z,1.00
2023-03-27T15:51:00.437Z,1.17
2023-03-27T15:53:42.485Z,0.80
2023-03-27T15:56:22.110Z,0.73
2023-03-27T15:58:52.342Z,0.65
2023-03-27T16:01:22.396Z,1.40
2023-03-27T16:03:51.296Z,0.50
2023-03-27T16:06:38.571Z,0.50
2023-03-27T16:09:17.917Z,0.40
2023-03-27T16:11:46.665Z,0.70
2023-03-27T16:14:22.168Z,0.60
2023-03-27T16:16:49.743Z,0.65
2023-03-27T16:19:16.396Z,0.60
2023-03-27T16:21:56.326Z,0.60
2023-03-27T16:24:22.973Z,0.50
2023-03-27T16:26:50.030Z,0.50
2023-03-27T16:29:17.560Z,0.77
2023-03-27T16:31:44.172Z,1.15
2023-03-27T16:34:21.857Z,0.82
2023-03-27T16:36:49.879Z,0.88
2023-03-27T16:39:16.620Z,0.82
2023-03-27T16:41:43.214Z,0.82
2023-03-27T16:44:09.691Z,0.90
2023-03-27T16:46:36.484Z,1.00
2023-03-27T16:49:03.835Z,1.10
2023-03-27T16:51:30.523Z,1.00
2023-03-27T16:53:57.345Z,1.30
2023-03-27T16:56:23.924Z,1.23
2023-03-27T16:58:50.535Z,0.85
2023-03-27T17:01:17.155Z,1.58
2023-03-27T17:03:43.684Z,1.02
2023-03-27T17:06:12.488Z,0.90
2023-03-27T17:08:39.048Z,1.02
2023-03-27T17:11:08.674Z,0.60
2023-03-27T17:13:36.030Z,0.70
2023-03-27T17:16:03.111Z,0.80
2023-03-27T17:18:29.959Z,0.80
2023-03-27T17:20:56.446Z,0.88
2023-03-27T17:23:23.576Z,1.10
2023-03-27T17:25:50.363Z,1.15
2023-03-27T17:28:17.532Z,1.42
2023-03-27T17:30:56.693Z,0.88
2023-03-27T17:33:30.292Z,0.98
2023-03-27T17:35:57.533Z,0.60
2023-03-27T17:38:24.355Z,1.05
2023-03-27T17:40:51.493Z,1.20
2023-03-27T17:43:18.200Z,1.13
2023-03-27T17:45:44.794Z,0.88
2023-03-27T17:48:11.421Z,0.73
2023-03-27T17:50:38.790Z,0.40
2023-03-27T17:53:05.314Z,0.70
2023-03-27T17:55:31.848Z,0.50
2023-03-27T17:58:08.438Z,0.80
2023-03-27T18:00:37.402Z,0.52
2023-03-27T18:03:04.213Z,0.50
2023-03-27T18:05:30.999Z,0.55
2023-03-27T18:07:57.530Z,1.10
2023-03-27T18:10:24.412Z,0.63
2023-03-27T18:12:50.980Z,0.90
2023-03-27T18:15:17.514Z,0.80
2023-03-27T18:17:44.202Z,0.75
2023-03-27T18:20:10.679Z,0.80
2023-03-27T18:22:38.038Z,0.70
2023-03-27T18:25:06.735Z,0.57
2023-03-27T18:27:33.269Z,0.43
2023-03-27T18:29:59.878Z,0.40
2023-03-27T18:32:26.553Z,0.52
2023-03-27T18:34:53.140Z,0.60
2023-03-27T18:37:19.612Z,0.50
2023-03-27T18:39:46.634Z,0.30
2023-03-27T18:42:13.581Z,0.82
2023-03-27T18:44:41.543Z,0.63
2023-03-27T18:47:08.413Z,0.45
2023-03-27T18:49:34.910Z,0.43
2023-03-27T18:52:01.420Z,0.95
2023-03-27T18:54:28.186Z,0.65
2023-03-27T18:56:54.705Z,0.85
2023-03-27T18:59:22.673Z,0.80
2023-03-27T19:01:49.261Z,1.20
2023-03-27T19:04:17.254Z,0.80
2023-03-27T19:06:43.969Z,0.60
2023-03-27T19:09:10.461Z,0.77
2023-03-27T19:11:38.191Z,0.50
2023-03-27T19:14:23.405Z,0.77
2023-03-27T19:17:14.433Z,0.60
2023-03-27T19:19:59.608Z,0.73
2023-03-27T19:22:41.120Z,0.98
2023-03-27T19:25:33.905Z,1.25
2023-03-27T19:28:01.335Z,1.05
2023-03-27T19:30:28.068Z,0.47
2023-03-27T19:32:55.724Z,0.88
2023-03-27T19:35:22.279Z,0.98
2023-03-27T19:37:49.792Z,0.80
2023-03-27T19:40:20.295Z,0.70
2023-03-27T19:42:46.786Z,0.60
2023-03-27T19:45:13.438Z,0.43
2023-03-27T19:47:39.896Z,0.68
2023-03-27T19:50:08.784Z,0.50
2023-03-27T19:53:09.060Z,0.68
2023-03-27T19:55:35.799Z,0.60
2023-03-27T19:58:02.528Z,0.32
2023-03-27T20:00:31.428Z,1.42
2023-03-27T20:02:58.263Z,0.82
2023-03-27T20:05:24.843Z,0.90
2023-03-27T20:07:53.479Z,0.88
2023-03-27T20:10:21.373Z,1.02
2023-03-27T20:12:48.405Z,0.47
2023-03-27T20:15:14.856Z,0.60
2023-03-27T20:17:42.867Z,0.80
2023-03-27T20:20:12.933Z,0.57
2023-03-27T20:22:54.216Z,0.80
2023-03-27T20:25:23.503Z,0.60
2023-03-27T20:27:49.974Z,1.13
2023-03-27T20:30:17.002Z,1.15
2023-03-27T20:32:43.742Z,0.95
2023-03-27T20:35:22.940Z,1.25
2023-03-27T20:37:56.352Z,0.90
2023-03-27T20:40:25.781Z,0.50
2023-03-27T20:43:03.942Z,1.08
2023-03-27T20:45:31.257Z,0.60
2023-03-27T20:48:03.759Z,0.57
2023-03-27T20:50:35.854Z,0.63
2023-03-27T20:53:04.174Z,0.90
2023-03-27T20:55:34.611Z,0.60
2023-03-27T20:58:02.929Z,0.80
2023-03-27T21:00:29.406Z,0.88
2023-03-27T21:02:56.192Z,0.63
2023-03-27T21:05:22.821Z,0.70
2023-03-27T21:07:51.286Z,0.70
2023-03-27T21:10:19.413Z,0.70
2023-03-27T21:12:45.979Z,1.13
2023-03-27T21:15:13.848Z,0.70
2023-03-27T21:17:40.884Z,1.00
2023-03-27T21:20:08.719Z,1.13
2023-03-27T21:22:37.239Z,0.60
2023-03-27T21:25:03.850Z,0.30
2023-03-27T21:27:30.978Z,0.95
2023-03-27T21:29:58.232Z,0.73
2023-03-27T21:32:24.855Z,0.77
2023-03-27T21:34:51.337Z,0.52
2023-03-27T21:37:17.873Z,0.60
2023-03-27T21:39:44.373Z,1.00
2023-03-27T21:42:10.911Z,0.55
2023-03-27T21:44:37.389Z,1.13
2023-03-27T21:47:03.883Z,0.65
2023-03-27T21:49:30.485Z,0.75
2023-03-27T21:51:57.015Z,0.80
2023-03-27T21:54:23.575Z,0.80
2023-03-27T21:56:50.083Z,0.40
2023-03-27T21:59:16.694Z,0.68
2023-03-27T22:01:43.211Z,0.60
2023-03-27T22:04:11.425Z,0.60
2023-03-27T22:06:38.216Z,0.55
2023-03-27T22:09:04.686Z,0.40
2023-03-27T22:11:31.278Z,0.95
2023-03-27T22:13:59.138Z,0.88
2023-03-27T22:16:25.850Z,0.55
2023-03-27T22:18:52.470Z,1.02
2023-03-27T22:21:27.011Z,0.47
2023-03-27T22:23:55.293Z,0.90
2023-03-27T22:26:24.193Z,0.75
2023-03-27T22:28:52.469Z,0.95
2023-03-27T22:31:19.920Z,0.50
2023-03-27T22:33:46.513Z,0.57
2023-03-27T22:36:13.452Z,0.50
2023-03-27T22:38:40.751Z,0.77
2023-03-27T22:41:09.088Z,0.70
2023-03-27T22:43:36.113Z,0.90
2023-03-27T22:46:07.013Z,0.38
2023-03-27T22:48:34.567Z,0.50
2023-03-27T22:51:01.287Z,0.82
2023-03-27T22:53:28.296Z,0.77
2023-03-27T22:55:56.738Z,0.80
2023-03-27T22:58:24.112Z,0.65
2023-03-27T23:00:51.747Z,0.40
2023-03-27T23:03:18.688Z,0.47
2023-03-27T23:05:48.892Z,0.63
2023-03-27T23:08:16.589Z,0.82
2023-03-27T23:10:43.067Z,0.65
2023-03-27T23:13:10.005Z,0.60
2023-03-27T23:15:36.764Z,0.85
2023-03-27T23:18:03.928Z,0.90
2023-03-27T23:20:31.216Z,0.75
2023-03-27T23:22:57.726Z,0.68
2023-03-27T23:25:24.259Z,0.50
2023-03-27T23:27:50.750Z,1.00
2023-03-27T23:30:17.286Z,0.85
2023-03-27T23:32:43.834Z,0.73
2023-03-27T23:35:11.354Z,0.98
2023-03-27T23:37:38.052Z,0.82
2023-03-27T23:40:04.961Z,1.00
2023-03-27T23:42:31.674Z,0.95
2023-03-27T23:44:58.125Z,0.60
2023-03-27T23:47:24.668Z,0.65
2023-03-27T23:49:51.184Z,0.93
2023-03-27T23:52:17.989Z,0.80
2023-03-27T23:54:44.502Z,0.85
2023-03-27T23:57:10.999Z,0.93
2023-03-27T23:59:37.912Z,0.90
